Time;durP1;ratioP1;P1;durP2;ratioP2;P2;SDS_P1;SDS_P2;PMS_P1;PMS_P2;Temp;Humidity;BMP_temperature;BMP_pressure;BME280_temperature;BME280_humidity;BME280_pressure;Samples;Min_cycle;Max_cycle;Signal;HPM_P1;HPM_P2
2022/06/08 00:00:15;;;;;;;;;;;;;;;22.90;44.89;100914.84;2091370;28;864;-53
2022/06/08 00:01:17;;;;;;;;;;;;;;;22.92;44.94;100915.66;2092255;28;807;-53
2022/06/08 00:02:18;;;;;;;;;;;;;;;22.91;44.40;100914.78;2100337;28;823;-53
2022/06/08 00:03:23;;;;;;;;;;;;;;;22.92;44.15;100912.94;2099394;28;2763;-52
2022/06/08 00:04:24;;;;;;;;;;;;;;;22.89;44.42;100916.69;2100284;28;819;-53
2022/06/08 00:05:24;;;;;;;;;;;;;;;22.88;45.06;100911.31;2100248;28;814;-53
2022/06/08 00:06:24;;;;;;;;;;;;;;;22.89;44.71;100913.09;2100248;28;985;-53
2022/06/08 00:07:24;;;;;;;;;;;;;;;22.86;45.66;100914.09;2099656;28;788;-53
2022/06/08 00:08:25;;;;;;;;;;;;;;;22.84;45.51;100916.00;2099707;28;1909;-53
2022/06/08 00:09:26;;;;;;;;;;;;;;;22.84;45.60;100910.59;2100215;28;1001;-53
2022/06/08 00:10:27;;;;;;;;;;;;;;;22.84;46.45;100905.19;2100177;28;870;-53
2022/06/08 00:11:27;;;;;;;;;;;;;;;22.87;45.92;100907.75;2100179;28;1056;-53
2022/06/08 00:12:27;;;;;;;;;;;;;;;22.85;46.86;100898.84;2100228;28;827;-53
2022/06/08 00:13:27;;;;;;;;;;;;;;;22.85;46.59;100908.75;2100195;28;768;-53
2022/06/08 00:14:28;;;;;;;;;;;;;;;22.84;46.96;100909.69;2100164;28;1037;-53
2022/06/08 00:15:28;;;;;;;;;;;;;;;22.83;47.29;100903.44;2100143;28;784;-53
2022/06/08 00:16:28;;;;;;;;;;;;;;;22.83;46.97;100908.81;2100194;28;827;-53
2022/06/08 00:17:28;;;;;;;;;;;;;;;22.84;47.30;100909.69;2100155;28;788;-53
2022/06/08 00:18:28;;;;;;;;;;;;;;;22.82;47.01;100900.78;2100181;28;838;-53
2022/06/08 00:19:28;;;;;;;;;;;;;;;22.80;48.06;100899.00;2100131;28;989;-53
2022/06/08 00:20:29;;;;;;;;;;;;;;;22.82;48.03;100906.19;2099002;28;2385;-53
2022/06/08 00:21:29;;;;;;;;;;;;;;;22.80;48.20;100906.25;2100125;28;780;-53
2022/06/08 00:22:29;;;;;;;;;;;;;;;22.81;47.38;100902.63;2100097;28;993;-53
2022/06/08 00:23:29;;;;;;;;;;;;;;;22.80;47.81;100892.75;2100115;28;679;-53
2022/06/08 00:24:29;;;;;;;;;;;;;;;22.78;48.44;100897.34;2100088;28;822;-53
2022/06/08 00:25:29;;;;;;;;;;;;;;;22.78;48.01;100892.81;2100088;28;1060;-53
2022/06/08 00:26:30;;;;;;;;;;;;;;;22.79;48.41;100893.69;2100076;28;694;-53
2022/06/08 00:27:30;;;;;;;;;;;;;;;22.78;48.09;100889.25;2099973;28;1228;-52
2022/06/08 00:28:31;;;;;;;;;;;;;;;22.78;48.12;100884.69;2100137;28;1914;-53
2022/06/08 00:29:32;;;;;;;;;;;;;;;22.78;48.70;100881.13;2100052;28;882;-53
2022/06/08 00:30:32;;;;;;;;;;;;;;;22.78;48.21;100889.25;2091142;28;1623;-53
2022/06/08 00:31:32;;;;;;;;;;;;;;;22.78;49.02;100887.41;2091200;28;1036;-53
2022/06/08 00:32:33;;;;;;;;;;;;;;;22.77;48.87;100884.78;2099958;28;819;-53
2022/06/08 00:33:33;;;;;;;;;;;;;;;22.77;48.28;100880.25;2100162;28;878;-53
2022/06/08 00:34:33;;;;;;;;;;;;;;;22.77;48.93;100882.94;2099958;28;957;-53
2022/06/08 00:35:33;;;;;;;;;;;;;;;22.77;48.43;100872.13;2099975;28;981;-53
2022/06/08 00:36:33;;;;;;;;;;;;;;;22.74;49.27;100877.66;2099999;28;988;-53
2022/06/08 00:37:33;;;;;;;;;;;;;;;22.75;48.45;100878.56;2091732;28;2418;-53
2022/06/08 00:38:35;;;;;;;;;;;;;;;22.73;48.51;100875.06;2091055;28;1004;-53
2022/06/08 00:39:35;;;;;;;;;;;;;;;22.72;48.74;100871.44;2091124;28;882;-52
2022/06/08 00:40:50;;;;;;;;;;;;;;;22.74;48.39;100872.25;2091705;28;901;-53
2022/06/08 00:41:55;;;;;;;;;;;;;;;22.73;48.40;100873.22;2091760;28;850;-53
2022/06/08 00:42:55;;;;;;;;;;;;;;;22.73;48.44;100869.66;2091789;28;853;-53
2022/06/08 00:43:55;;;;;;;;;;;;;;;22.70;48.56;100875.19;2091841;28;719;-53
2022/06/08 00:44:58;;;;;;;;;;;;;;;22.69;48.34;100871.56;2091675;28;893;-53
2022/06/08 00:45:58;;;;;;;;;;;;;;;22.69;49.09;100868.88;2091669;28;819;-53
2022/06/08 00:47:00;;;;;;;;;;;;;;;22.69;48.73;100874.28;2091640;28;779;-52
2022/06/08 00:48:02;;;;;;;;;;;;;;;22.68;48.09;100871.66;2091599;28;1967;-53
2022/06/08 00:49:08;;;;;;;;;;;;;;;22.68;47.56;100868.97;2091645;28;985;-52
2022/06/08 00:50:11;;;;;;;;;;;;;;;22.68;47.61;100866.25;2091677;28;1056;-53
2022/06/08 00:51:12;;;;;;;;;;;;;;;22.67;47.86;100870.75;2091588;28;1143;-53
2022/06/08 00:52:13;;;;;;;;;;;;;;;22.66;47.54;100860.94;2090887;28;2356;-53
2022/06/08 00:53:15;;;;;;;;;;;;;;;22.64;47.14;100855.59;2091643;28;894;-52
2022/06/08 00:54:19;;;;;;;;;;;;;;;22.64;46.56;100858.28;2082681;28;1269;-52
2022/06/08 00:55:21;;;;;;;;;;;;;;;22.63;46.78;100864.63;2083199;28;1048;-53
2022/06/08 00:56:24;;;;;;;;;;;;;;;22.63;46.38;100859.22;2091648;28;859;-53
2022/06/08 00:57:30;;;;;;;;;;;;;;;22.64;45.43;100865.53;2091585;28;1037;-52
2022/06/08 00:58:31;;;;;;;;;;;;;;;22.64;45.37;100865.53;2091741;28;760;-52
2022/06/08 00:59:33;;;;;;;;;;;;;;;22.64;44.88;100863.69;2091706;28;736;-52
2022/06/08 01:00:37;;;;;;;;;;;;;;;22.63;45.49;100863.75;2091557;28;1020;-52
2022/06/08 01:01:38;;;;;;;;;;;;;;;22.61;45.21;100866.50;2091544;28;823;-52
2022/06/08 01:02:38;;;;;;;;;;;;;;;22.61;44.66;100861.13;2091556;28;776;-52
2022/06/08 01:03:38;;;;;;;;;;;;;;;22.61;45.08;100860.25;2091540;28;890;-53
2022/06/08 01:04:38;;;;;;;;;;;;;;;22.62;44.59;100859.31;2091506;28;965;-53
2022/06/08 01:05:41;;;;;;;;;;;;;;;22.62;44.33;100856.59;2091532;28;1033;-52
2022/06/08 01:06:43;;;;;;;;;;;;;;;22.62;44.40;100859.31;2091535;28;806;-52
2022/06/08 01:07:43;;;;;;;;;;;;;;;22.60;44.01;100856.66;2091534;28;870;-52
2022/06/08 01:28:09;;;;;;;;;;;;;;;22.57;45.39;100829.78;2115547;27;1253;-54
2022/06/08 01:29:18;;;;;;;;;;;;;;;22.57;45.66;100832.47;2115433;28;862;-54
2022/06/08 01:30:21;;;;;;;;;;;;;;;22.58;45.61;100827.97;2115405;28;835;-54
2022/06/08 01:31:34;;;;;;;;;;;;;;;22.57;45.05;100831.63;2115404;28;849;-54
2022/06/08 01:32:41;;;;;;;;;;;;;;;22.57;45.94;100831.63;2115420;28;936;-54
2022/06/08 01:33:51;;;;;;;;;;;;;;;22.56;45.35;100825.31;2115371;28;992;-55
2022/06/08 01:35:00;;;;;;;;;;;;;;;22.56;45.84;100821.78;2115353;28;997;-54
2022/06/08 01:36:06;;;;;;;;;;;;;;;22.55;45.78;100820.88;2115406;28;728;-54
2022/06/08 01:37:09;;;;;;;;;;;;;;;22.55;45.95;100820.88;2115106;28;862;-55
2022/06/08 01:38:17;;;;;;;;;;;;;;;22.56;45.64;100814.53;2114655;28;878;-55
2022/06/08 01:39:24;;;;;;;;;;;;;;;22.54;45.50;100811.00;2114831;28;874;-54
2022/06/08 01:40:57;;;;;;;;;;;;;;;22.55;45.81;100812.78;2115392;28;795;-54
2022/06/08 01:41:57;;;;;;;;;;;;;;;22.55;45.14;100810.06;2114298;28;1002;-54
2022/06/08 01:43:03;;;;;;;;;;;;;;;22.55;44.66;100806.50;2120929;28;2704;-55
2022/06/08 01:44:15;;;;;;;;;;;;;;;22.53;45.35;100803.00;2122815;28;933;-55
2022/06/08 01:45:33;;;;;;;;;;;;;;;22.54;44.31;100807.47;2122847;28;956;-55
2022/06/08 01:46:39;;;;;;;;;;;;;;;22.54;44.76;100802.06;2122811;28;866;-55
2022/06/08 01:47:58;;;;;;;;;;;;;;;22.54;44.12;100807.47;2122804;28;1914;-55
2022/06/08 01:49:10;;;;;;;;;;;;;;;22.55;44.12;100806.50;2122865;28;770;-55
2022/06/08 01:50:18;;;;;;;;;;;;;;;22.55;44.73;100793.88;2122814;28;967;-55
2022/06/08 01:51:25;;;;;;;;;;;;;;;22.54;43.94;100792.13;2122784;28;985;-55
2022/06/08 01:52:32;;;;;;;;;;;;;;;22.54;44.18;100797.53;2122692;28;922;-55
2022/06/08 01:53:48;;;;;;;;;;;;;;;22.55;44.59;100796.56;2122777;28;917;-55
2022/06/08 01:54:57;;;;;;;;;;;;;;;22.55;43.92;100796.56;2122816;28;763;-55
2022/06/08 01:56:03;;;;;;;;;;;;;;;22.55;44.71;100801.97;2122749;28;965;-55
2022/06/08 01:57:09;;;;;;;;;;;;;;;22.55;43.89;100803.81;2122785;28;801;-55
2022/06/08 01:58:23;;;;;;;;;;;;;;;22.55;43.73;100796.56;2122640;28;921;-55
2022/06/08 01:59:42;;;;;;;;;;;;;;;22.56;44.01;100800.16;2121429;28;2664;-55
2022/06/08 02:00:46;;;;;;;;;;;;;;;22.56;43.94;100798.34;2122692;28;970;-55
2022/06/08 02:01:49;;;;;;;;;;;;;;;22.55;43.99;100796.56;2122709;28;858;-55
2022/06/08 02:02:54;;;;;;;;;;;;;;;22.55;44.25;100796.56;2122701;28;794;-55
2022/06/08 02:04:25;;;;;;;;;;;;;;;22.57;44.28;100796.53;2122671;28;862;-55
2022/06/08 02:05:26;;;;;;;;;;;;;;;22.56;44.40;100797.47;2105608;28;1060;-55
2022/06/08 02:06:30;;;;;;;;;;;;;;;22.56;44.51;100798.34;2105721;28;993;-55
2022/06/08 02:07:30;;;;;;;;;;;;;;;22.56;44.45;100798.34;2105599;28;1967;-55
2022/06/08 02:08:40;;;;;;;;;;;;;;;22.57;45.06;100797.38;2105682;28;895;-55
2022/06/08 02:09:56;;;;;;;;;;;;;;;22.57;44.47;100799.22;2105736;28;859;-55
2022/06/08 02:10:56;;;;;;;;;;;;;;;22.57;45.08;100801.94;2105697;28;855;-56
2022/06/08 02:12:02;;;;;;;;;;;;;;;22.56;44.99;100798.34;2105686;28;945;-55
2022/06/08 02:13:13;;;;;;;;;;;;;;;22.56;45.38;100800.16;2105654;28;831;-55
2022/06/08 02:14:16;;;;;;;;;;;;;;;22.55;45.46;100803.81;2105704;28;969;-54
2022/06/08 02:15:20;;;;;;;;;;;;;;;22.56;44.63;100803.72;2105698;28;811;-55
2022/06/08 02:16:23;;;;;;;;;;;;;;;22.57;45.38;100799.22;2105634;28;1032;-55
2022/06/08 02:17:52;;;;;;;;;;;;;;;22.56;45.27;100801.03;2104422;28;2449;-55
2022/06/08 02:18:56;;;;;;;;;;;;;;;22.56;45.02;100800.16;2088938;28;1199;-55
2022/06/08 02:20:10;;;;;;;;;;;;;;;22.57;44.72;100801.94;2088995;28;871;-55
2022/06/08 02:21:22;;;;;;;;;;;;;;;22.56;45.26;100803.72;2089034;28;1021;-55
2022/06/08 02:22:43;;;;;;;;;;;;;;;22.56;45.61;100806.44;2089019;28;850;-55
2022/06/08 02:23:47;;;;;;;;;;;;;;;22.57;45.45;100808.19;2089029;28;1024;-55
2022/06/08 02:25:06;;;;;;;;;;;;;;;22.57;45.73;100799.22;2088981;28;985;-55
2022/06/08 02:26:11;;;;;;;;;;;;;;;22.55;45.66;100796.56;2089056;28;807;-55
2022/06/08 02:27:22;;;;;;;;;;;;;;;22.55;45.03;100801.97;2088719;28;1890;-54
2022/06/08 02:28:28;;;;;;;;;;;;;;;22.56;45.75;100802.88;2088999;28;1053;-56
2022/06/08 02:29:31;;;;;;;;;;;;;;;22.55;45.20;100801.13;2088918;28;1033;-55
2022/06/08 02:30:36;;;;;;;;;;;;;;;22.56;45.45;100802.88;2088886;28;1030;-55
2022/06/08 02:31:41;;;;;;;;;;;;;;;22.55;45.74;100799.28;2088816;28;1992;-55
2022/06/08 02:34:29;;;;;;;;;;;;;;;22.56;45.61;100798.34;2088983;28;672;-55
2022/06/08 02:35:49;;;;;;;;;;;;;;;22.54;46.27;100794.81;2088978;28;842;-55
2022/06/08 02:36:51;;;;;;;;;;;;;;;22.55;45.59;100788.47;2088487;28;1753;-56
2022/06/08 02:37:54;;;;;;;;;;;;;;;22.56;46.13;100792.94;2088782;28;1284;-54
2022/06/08 02:38:58;;;;;;;;;;;;;;;22.54;45.93;100794.81;2086009;28;834;-54
2022/06/08 02:40:18;;;;;;;;;;;;;;;22.54;46.11;100781.31;2083382;28;954;-55
2022/06/08 02:41:20;;;;;;;;;;;;;;;22.52;46.45;100783.22;2083371;28;1109;-55
2022/06/08 02:42:24;;;;;;;;;;;;;;;22.54;46.70;100784.03;2086089;28;1034;-55
2022/06/08 02:43:31;;;;;;;;;;;;;;;22.55;45.94;100784.91;2091560;28;1034;-55
2022/06/08 02:44:33;;;;;;;;;;;;;;;22.55;46.79;100790.31;2091554;28;981;-55
2022/06/08 02:45:37;;;;;;;;;;;;;;;22.54;47.30;100789.41;2091582;28;871;-55
2022/06/08 02:46:54;;;;;;;;;;;;;;;22.56;47.92;100782.13;2091586;28;791;-55
2022/06/08 02:47:57;;;;;;;;;;;;;;;22.57;48.61;100786.59;2092511;28;2453;-55
2022/06/08 02:49:02;;;;;;;;;;;;;;;22.57;49.09;100789.28;2099865;28;993;-55
2022/06/08 02:50:06;;;;;;;;;;;;;;;22.56;49.11;100789.38;2099875;28;902;-55
2022/06/08 02:51:06;;;;;;;;;;;;;;;22.54;49.85;100781.31;2099756;28;1080;-55
2022/06/08 02:52:10;;;;;;;;;;;;;;;22.55;49.96;100788.47;2099825;28;993;-55
2022/06/08 02:53:16;;;;;;;;;;;;;;;22.56;49.29;100795.63;2099778;28;1032;-54
2022/06/08 02:54:21;;;;;;;;;;;;;;;22.55;49.47;100790.31;2099811;28;1009;-55
2022/06/08 02:55:28;;;;;;;;;;;;;;;22.53;49.68;100787.66;2099784;28;952;-55
2022/06/08 02:56:37;;;;;;;;;;;;;;;22.52;49.74;100783.22;2100715;28;1112;-55
2022/06/08 02:57:38;;;;;;;;;;;;;;;22.52;49.52;100794.00;2100728;28;882;-55
2022/06/08 02:58:48;;;;;;;;;;;;;;;22.52;49.62;100785.91;2100721;28;882;-56
2022/06/08 02:59:50;;;;;;;;;;;;;;;22.53;49.70;100789.50;2100747;28;929;-55
2022/06/08 03:00:54;;;;;;;;;;;;;;;22.52;50.08;100731.91;2100689;28;1032;-56
2022/06/08 03:01:54;;;;;;;;;;;;;;;22.53;50.62;100732.81;2100699;28;909;-55
2022/06/08 03:03:00;;;;;;;;;;;;;;;22.54;50.05;100731.88;2100717;28;928;-55
2022/06/08 03:04:05;;;;;;;;;;;;;;;22.54;50.47;100735.44;2103267;28;2251;-55
2022/06/08 03:05:15;;;;;;;;;;;;;;;22.53;50.64;100735.50;2109059;28;941;-55
2022/06/08 03:06:20;;;;;;;;;;;;;;;22.52;50.64;100731.06;2109028;28;1005;-55
2022/06/08 03:07:23;;;;;;;;;;;;;;;22.52;49.81;100731.06;2108969;28;1893;-55
2022/06/08 03:08:31;;;;;;;;;;;;;;;22.53;50.36;100808.41;2108994;28;992;-55
2022/06/08 03:09:32;;;;;;;;;;;;;;;22.52;49.98;100791.31;2109042;28;969;-56
2022/06/08 03:10:37;;;;;;;;;;;;;;;22.51;49.41;100778.75;2108995;28;836;-55
2022/06/08 03:11:40;;;;;;;;;;;;;;;22.51;49.75;100765.25;2109021;28;878;-55
2022/06/08 03:12:53;;;;;;;;;;;;;;;22.50;49.50;100768.91;2108991;28;795;-55
2022/06/08 03:13:55;;;;;;;;;;;;;;;22.49;49.21;100768.03;2109026;28;965;-55
2022/06/08 03:14:56;;;;;;;;;;;;;;;22.49;49.43;100772.53;2108873;28;1904;-55
2022/06/08 03:15:57;;;;;;;;;;;;;;;22.48;49.19;100763.59;2109001;28;835;-56
2022/06/08 03:17:01;;;;;;;;;;;;;;;22.47;48.58;100763.63;2108921;28;906;-55
2022/06/08 03:18:01;;;;;;;;;;;;;;;22.47;48.79;100759.13;2108948;28;858;-55
2022/06/08 03:19:01;;;;;;;;;;;;;;;22.47;47.55;100763.63;2108902;28;775;-55
2022/06/08 03:20:05;;;;;;;;;;;;;;;22.47;47.12;100767.22;2107355;28;2545;-56
2022/06/08 03:21:06;;;;;;;;;;;;;;;22.46;46.48;100765.47;2107954;28;1065;-55
2022/06/08 03:22:06;;;;;;;;;;;;;;;22.47;47.25;100769.03;2100568;28;861;-56
2022/06/08 03:23:06;;;;;;;;;;;;;;;22.47;47.13;100766.31;2100557;28;835;-55
2022/06/08 03:24:07;;;;;;;;;;;;;;;22.46;46.38;100761.88;2100538;28;906;-56
2022/06/08 03:25:07;;;;;;;;;;;;;;;22.45;46.28;100761.00;2100518;28;760;-55
2022/06/08 03:26:07;;;;;;;;;;;;;;;22.47;45.38;100760.94;2100510;28;1036;-55
2022/06/08 03:27:08;;;;;;;;;;;;;;;22.45;45.73;100761.00;2101120;28;2145;-55
2022/06/08 03:28:08;;;;;;;;;;;;;;;22.45;45.87;100760.13;2108898;28;912;-55
2022/06/08 03:29:08;;;;;;;;;;;;;;;22.45;44.93;100761.00;2108832;28;798;-55
2022/06/08 03:30:09;;;;;;;;;;;;;;;22.44;44.91;100761.94;2108858;28;789;-55
2022/06/08 03:31:09;;;;;;;;;;;;;;;22.45;45.18;100757.41;2108822;28;845;-55
2022/06/08 03:32:10;;;;;;;;;;;;;;;22.43;44.23;100749.38;2108848;28;965;-54
2022/06/08 03:33:10;;;;;;;;;;;;;;;22.43;44.32;100754.75;2108834;28;838;-55
2022/06/08 03:34:10;;;;;;;;;;;;;;;22.44;44.26;100766.47;2108898;28;1028;-54
2022/06/08 03:35:11;;;;;;;;;;;;;;;22.44;44.07;100759.25;2108806;28;783;-55
2022/06/08 03:36:12;;;;;;;;;;;;;;;22.44;43.94;100761.06;2108767;28;847;-55
2022/06/08 03:37:12;;;;;;;;;;;;;;;22.44;44.68;100758.34;2108030;28;2396;-54
2022/06/08 03:38:12;;;;;;;;;;;;;;;22.43;44.17;100757.47;2108771;28;843;-55
2022/06/08 03:39:12;;;;;;;;;;;;;;;22.43;44.88;100753.88;2108775;28;815;-55
2022/06/08 03:40:13;;;;;;;;;;;;;;;22.45;44.91;100760.13;2108746;28;858;-55
2022/06/08 03:41:13;;;;;;;;;;;;;;;22.45;44.87;100755.59;2108732;28;862;-55
2022/06/08 03:42:14;;;;;;;;;;;;;;;22.45;44.47;100749.31;2108764;28;882;-56
2022/06/08 03:43:14;;;;;;;;;;;;;;;22.44;44.84;100750.25;2108849;28;985;-55
2022/06/08 03:44:14;;;;;;;;;;;;;;;22.43;44.81;100752.06;2108742;28;685;-55
2022/06/08 03:45:15;;;;;;;;;;;;;;;22.43;44.46;100753.88;2108712;28;980;-55
2022/06/08 03:46:15;;;;;;;;;;;;;;;22.43;45.12;100759.28;2108701;28;866;-55
2022/06/08 03:47:18;;;;;;;;;;;;;;;22.44;45.13;100752.97;2108593;28;1897;-55
2022/06/08 03:48:19;;;;;;;;;;;;;;;22.43;44.27;100754.75;2108662;28;846;-55
2022/06/08 03:49:22;;;;;;;;;;;;;;;22.44;44.50;100756.56;2108700;28;1030;-55
2022/06/08 03:50:25;;;;;;;;;;;;;;;22.44;45.16;100755.66;2108425;28;771;-55
2022/06/08 03:51:25;;;;;;;;;;;;;;;22.44;44.97;100752.97;2108065;28;1053;-55
2022/06/08 03:52:29;;;;;;;;;;;;;;;22.44;45.25;100748.47;2108802;28;858;-55
2022/06/08 03:53:34;;;;;;;;;;;;;;;22.43;44.61;100748.47;2108649;28;956;-54
2022/06/08 03:54:36;;;;;;;;;;;;;;;22.43;44.94;100743.06;2108651;28;873;-54
2022/06/08 03:55:37;;;;;;;;;;;;;;;22.44;45.24;100744.88;2108606;28;870;-54
2022/06/08 03:56:38;;;;;;;;;;;;;;;22.43;45.02;100748.47;2108644;28;846;-53
2022/06/08 03:57:41;;;;;;;;;;;;;;;22.44;45.38;100752.97;2108654;28;791;-55
2022/06/08 03:58:41;;;;;;;;;;;;;;;22.43;45.20;100746.66;2108565;28;972;-56
2022/06/08 03:59:43;;;;;;;;;;;;;;;22.43;45.72;100748.47;2108587;28;838;-55
2022/06/08 04:00:44;;;;;;;;;;;;;;;22.43;45.19;100749.38;2108730;28;670;-54
2022/06/08 04:01:44;;;;;;;;;;;;;;;22.43;45.21;100748.47;2108591;28;791;-55
2022/06/08 04:02:48;;;;;;;;;;;;;;;23.56;41.74;100745.31;2108579;28;974;-55
2022/06/08 04:03:50;;;;;;;;;;;;;;;24.38;40.58;100744.06;2108681;28;993;-55
2022/06/08 04:04:50;;;;;;;;;;;;;;;24.97;39.16;100752.72;2108568;28;878;-56
2022/06/08 04:05:51;;;;;;;;;;;;;;;25.30;38.16;100749.16;2108556;28;858;-57
2022/06/08 04:06:51;;;;;;;;;;;;;;;25.71;36.92;100749.66;2108538;28;843;-56
2022/06/08 04:07:51;;;;;;;;;;;;;;;26.03;35.89;100745.09;2107889;28;2409;-55
2022/06/08 04:08:51;;;;;;;;;;;;;;;26.32;35.84;100752.53;2108559;28;981;-56
2022/06/08 04:09:51;;;;;;;;;;;;;;;26.62;34.71;100748.91;2108514;28;1036;-56
2022/06/08 04:10:52;;;;;;;;;;;;;;;26.98;33.91;100746.78;2108482;28;830;-56
2022/06/08 04:11:52;;;;;;;;;;;;;;;27.13;33.90;100742.22;2108512;28;1149;-56
2022/06/08 04:12:52;;;;;;;;;;;;;;;27.46;33.35;100743.78;2108597;28;837;-55
2022/06/08 04:13:52;;;;;;;;;;;;;;;27.65;33.10;100733.50;2108596;28;811;-56
2022/06/08 04:14:52;;;;;;;;;;;;;;;27.85;32.40;100738.59;2108405;28;1024;-55
2022/06/08 04:15:53;;;;;;;;;;;;;;;28.22;31.53;100719.81;2108494;28;1064;-55
2022/06/08 04:16:53;;;;;;;;;;;;;;;28.45;31.27;100723.66;2108470;28;819;-55
2022/06/08 04:17:53;;;;;;;;;;;;;;;28.65;31.43;100732.31;2108480;28;807;-55
2022/06/08 04:18:54;;;;;;;;;;;;;;;28.95;30.28;100739.34;2108475;28;807;-55
2022/06/08 04:19:54;;;;;;;;;;;;;;;28.99;30.47;100743.59;2108441;28;1067;-55
2022/06/08 04:20:55;;;;;;;;;;;;;;;28.98;30.42;100745.47;2108450;28;973;-55
2022/06/08 04:21:56;;;;;;;;;;;;;;;29.10;30.64;100740.97;2099357;28;1092;-55
2022/06/08 04:22:56;;;;;;;;;;;;;;;29.34;29.61;100740.19;2099371;28;874;-55
2022/06/08 04:23:56;;;;;;;;;;;;;;;29.59;29.35;100741.16;2099450;28;980;-55
2022/06/08 04:25:00;;;;;;;;;;;;;;;29.81;28.70;100743.16;2108331;28;981;-55
2022/06/08 04:26:00;;;;;;;;;;;;;;;29.98;28.67;100732.84;2114076;28;2591;-55
2022/06/08 04:27:01;;;;;;;;;;;;;;;29.93;28.80;100738.66;2116826;28;802;-55
2022/06/08 04:28:01;;;;;;;;;;;;;;;30.00;28.84;100730.88;2116634;28;1969;-55
2022/06/08 04:29:01;;;;;;;;;;;;;;;30.22;28.61;100740.19;2116797;28;822;-55
2022/06/08 04:30:01;;;;;;;;;;;;;;;30.49;27.97;100741.75;2116806;28;988;-55
2022/06/08 04:31:02;;;;;;;;;;;;;;;30.69;27.69;100742.97;2116783;28;1027;-55
2022/06/08 04:32:02;;;;;;;;;;;;;;;30.76;27.32;100742.38;2116781;28;1043;-55
2022/06/08 04:33:03;;;;;;;;;;;;;;;30.87;27.72;100746.13;2116783;28;1323;-55
2022/06/08 04:34:04;;;;;;;;;;;;;;;30.83;27.84;100731.81;2116743;28;988;-56
2022/06/08 04:35:05;;;;;;;;;;;;;;;30.83;27.67;100739.16;2116814;28;1684;-55
2022/06/08 04:36:05;;;;;;;;;;;;;;;30.82;27.85;100738.28;2116774;28;873;-55
2022/06/08 04:37:05;;;;;;;;;;;;;;;30.97;27.54;100740.78;2116668;28;1263;-55
2022/06/08 04:38:06;;;;;;;;;;;;;;;30.98;27.33;100737.91;2116780;28;766;-55
2022/06/08 04:39:08;;;;;;;;;;;;;;;31.06;27.38;100740.06;2116683;28;900;-55
2022/06/08 04:40:09;;;;;;;;;;;;;;;31.04;27.34;100736.56;2116868;28;782;-55
2022/06/08 04:41:09;;;;;;;;;;;;;;;31.16;27.16;100738.38;2116595;28;1197;-55
2022/06/08 04:42:09;;;;;;;;;;;;;;;31.28;27.38;100738.34;2115596;28;2374;-55
2022/06/08 04:43:10;;;;;;;;;;;;;;;31.34;27.02;100732.38;2108300;28;981;-55
2022/06/08 04:44:10;;;;;;;;;;;;;;;31.50;26.83;100735.59;2108262;28;1000;-55
2022/06/08 04:45:11;;;;;;;;;;;;;;;31.60;26.67;100734.84;2108259;28;1024;-55
2022/06/08 04:46:17;;;;;;;;;;;;;;;31.74;26.51;100731.00;2108268;28;862;-55
2022/06/08 04:47:17;;;;;;;;;;;;;;;31.70;26.79;100735.84;2108282;28;1893;-55
2022/06/08 04:48:19;;;;;;;;;;;;;;;31.71;26.57;100731.22;2108228;28;779;-55
2022/06/08 04:49:20;;;;;;;;;;;;;;;31.83;26.38;100735.69;2108250;28;890;-55
2022/06/08 04:50:21;;;;;;;;;;;;;;;31.89;26.50;100734.31;2108254;28;917;-55
2022/06/08 04:51:22;;;;;;;;;;;;;;;32.04;26.27;100730.28;2108223;28;897;-55
2022/06/08 04:52:23;;;;;;;;;;;;;;;31.99;26.58;100738.00;2108198;28;814;-55
2022/06/08 04:53:23;;;;;;;;;;;;;;;32.03;26.27;100731.28;2108229;28;811;-55
2022/06/08 04:54:23;;;;;;;;;;;;;;;32.03;26.86;100738.66;2108215;28;767;-55
2022/06/08 04:55:24;;;;;;;;;;;;;;;32.03;26.59;100738.66;2108226;28;1084;-55
2022/06/08 04:56:24;;;;;;;;;;;;;;;32.16;26.57;100728.34;2108185;28;877;-56
2022/06/08 04:57:24;;;;;;;;;;;;;;;32.29;26.46;100736.47;2108183;28;981;-56
2022/06/08 04:58:26;;;;;;;;;;;;;;;32.34;26.38;100731.44;2108150;28;791;-56
2022/06/08 04:59:27;;;;;;;;;;;;;;;32.30;26.48;100737.31;2108172;28;799;-56
2022/06/08 05:00:28;;;;;;;;;;;;;;;32.15;26.95;100739.47;2110627;28;2663;-56
2022/06/08 05:01:28;;;;;;;;;;;;;;;32.22;26.90;100726.97;2116438;28;1296;-55
2022/06/08 05:03:47;;;;;;;;;;;;;;;32.30;27.46;100738.19;2116601;28;711;-56
2022/06/08 05:04:48;;;;;;;;;;;;;;;32.44;27.36;100728.78;2116603;28;996;-55
2022/06/08 05:05:48;;;;;;;;;;;;;;;32.52;27.52;100728.09;2116536;28;806;-55
2022/06/08 05:06:48;;;;;;;;;;;;;;;32.48;27.81;100729.38;2116519;28;815;-55
2022/06/08 05:07:49;;;;;;;;;;;;;;;32.37;27.85;100724.81;2116490;28;1894;-55
2022/06/08 05:08:49;;;;;;;;;;;;;;;32.41;27.93;100714.44;2116564;28;989;-55
2022/06/08 05:09:49;;;;;;;;;;;;;;;32.37;28.11;100720.22;2116662;28;771;-55
2022/06/08 05:10:51;;;;;;;;;;;;;;;32.46;28.12;100709.44;2116492;28;901;-55
2022/06/08 05:11:51;;;;;;;;;;;;;;;32.38;27.84;100710.13;2116565;28;806;-55
2022/06/08 05:12:51;;;;;;;;;;;;;;;32.51;27.90;100701.69;2116510;28;917;-55
2022/06/08 05:13:52;;;;;;;;;;;;;;;32.34;28.13;100704.03;2116602;28;972;-55
2022/06/08 05:14:52;;;;;;;;;;;;;;;32.35;27.96;100697.56;2116512;28;814;-55
2022/06/08 05:15:52;;;;;;;;;;;;;;;32.45;27.88;100689.41;2116445;28;968;-55
2022/06/08 05:16:52;;;;;;;;;;;;;;;32.48;27.75;100699.22;2116510;28;826;-55
2022/06/08 05:17:52;;;;;;;;;;;;;;;32.52;27.52;100696.09;2115563;28;2374;-55
2022/06/08 05:18:53;;;;;;;;;;;;;;;32.59;27.79;100696.41;2116461;28;984;-55
2022/06/08 05:19:53;;;;;;;;;;;;;;;32.58;27.56;100697.41;2116462;28;791;-57
2022/06/08 05:20:54;;;;;;;;;;;;;;;32.45;27.96;100702.22;2116461;28;1033;-55
2022/06/08 05:21:54;;;;;;;;;;;;;;;32.24;28.44;100697.59;2116530;28;783;-55
2022/06/08 05:22:54;;;;;;;;;;;;;;;32.35;28.25;100697.56;2116461;28;854;-55
2022/06/08 05:23:55;;;;;;;;;;;;;;;32.41;27.71;100696.16;2116440;28;981;-55
2022/06/08 05:24:55;;;;;;;;;;;;;;;32.43;27.83;100696.88;2116493;28;1024;-55
2022/06/08 05:25:56;;;;;;;;;;;;;;;32.26;28.19;100698.31;2116457;28;765;-55
2022/06/08 05:26:56;;;;;;;;;;;;;;;32.15;28.63;100691.00;2116484;28;798;-55
2022/06/08 05:27:57;;;;;;;;;;;;;;;32.24;28.19;100689.34;2107187;28;1902;-55
2022/06/08 05:28:57;;;;;;;;;;;;;;;32.46;28.03;100685.66;2107451;28;905;-55
2022/06/08 05:29:57;;;;;;;;;;;;;;;32.59;27.48;100688.19;2116472;28;770;-55
2022/06/08 05:30:58;;;;;;;;;;;;;;;32.35;28.10;100693.94;2116442;28;855;-55
2022/06/08 05:31:58;;;;;;;;;;;;;;;32.52;27.65;100687.88;2116522;28;819;-55
2022/06/08 05:32:58;;;;;;;;;;;;;;;32.50;27.84;100687.13;2116446;28;813;-56
2022/06/08 05:33:58;;;;;;;;;;;;;;;32.37;28.04;100687.34;2116430;28;1016;-55
2022/06/08 05:34:59;;;;;;;;;;;;;;;32.44;27.71;100687.66;2116421;28;826;-55
2022/06/08 05:35:59;;;;;;;;;;;;;;;32.68;27.45;100687.38;2115456;28;2457;-56
2022/06/08 05:36:59;;;;;;;;;;;;;;;32.68;27.45;100683.75;2116426;28;862;-55
2022/06/08 05:37:59;;;;;;;;;;;;;;;32.81;27.19;100687.16;2116395;28;984;-56
2022/06/08 05:38:59;;;;;;;;;;;;;;;32.64;27.29;100688.66;2116418;28;980;-55
2022/06/08 05:40:00;;;;;;;;;;;;;;;32.46;27.36;100684.78;2116411;28;1039;-55
2022/06/08 05:41:00;;;;;;;;;;;;;;;32.58;27.56;100685.59;2116387;28;885;-55
2022/06/08 05:42:00;;;;;;;;;;;;;;;32.59;27.26;100685.44;2116399;28;811;-55
2022/06/08 05:43:01;;;;;;;;;;;;;;;32.67;27.33;100682.91;2116387;28;854;-55
2022/06/08 05:44:01;;;;;;;;;;;;;;;32.66;27.14;100681.16;2116425;28;885;-55
2022/06/08 05:45:03;;;;;;;;;;;;;;;32.44;27.40;100681.28;2116345;28;973;-56
2022/06/08 05:46:03;;;;;;;;;;;;;;;32.39;27.54;100684.44;2116283;28;1177;-55
2022/06/08 05:47:03;;;;;;;;;;;;;;;32.47;27.11;100681.91;2116329;28;1043;-55
2022/06/08 05:48:04;;;;;;;;;;;;;;;32.42;26.93;100678.69;2116299;28;1898;-56
2022/06/08 05:49:04;;;;;;;;;;;;;;;32.29;26.97;100678.03;2116402;28;830;-55
2022/06/08 05:50:05;;;;;;;;;;;;;;;32.51;26.28;100677.00;2116371;28;914;-55
2022/06/08 05:51:05;;;;;;;;;;;;;;;32.48;26.20;100686.41;2116381;28;936;-55
2022/06/08 05:52:07;;;;;;;;;;;;;;;32.37;26.57;100680.97;2115435;28;2579;-55